Ufo 3 — IUNV — position and weather

sailwx.info

Track history (hours):
 
Tides and Currents Weather Stations Pressure Air Temp Water Temp Dewpoint Dewpoint Depression Visibility Wind Speed Wind Dir Waves Ship Positions

Ufo 3

Last reported at 2017-Jul-23 16:27 UTC. Time now 2017-Jul-24 00:29 UTC.
Position N 44°03' E 009°51'.

Length 28 m.

Type: Passenger vessel. MMSI: 247031600.

Date/timePositionNaut miles runAvg speedWind from/ knotsBaromVisibWave heightAir tempDewpointWater temp
2017-Jul-23 16:27N 44°03' E 009°51'3 6.7
2017-Jul-23 16:00N 44°04' E 009°54'3 6.9
2017-Jul-23 15:30N 44°03' E 009°50'7 7.6
2017-Jul-23 14:35N 44°07' E 009°42'2 0.8
2017-Jul-23 12:28N 44°06' E 009°44'4 9.4
2017-Jul-23 12:00N 44°03' E 009°49'1 2.2
2017-Jul-23 11:30N 44°03' E 009°50'0 0.0
2017-Jul-23 11:00N 44°03' E 009°50'0 0.0
2017-Jul-23 10:30N 44°03' E 009°50'0 0.0
2017-Jul-23 10:00N 44°03' E 009°50'3 6.7
2017-Jul-23 09:30N 44°04' E 009°46'7 6.0
2017-Jul-23 08:20N 44°08' E 009°37'1 1.5
2017-Jul-23 07:47N 44°09' E 009°37'416.6
2017-Jul-23 07:30N 44°06' E 009°42'713.5
2017-Jul-23 07:00N 44°03' E 009°50'0 0.0
2017-Jul-23 06:30N 44°03' E 009°50'0 0.0
2017-Jul-23 06:00N 44°03' E 009°50'0 0.0
2017-Jul-23 05:30N 44°03' E 009°50'0 0.0
2017-Jul-23 05:00N 44°03' E 009°50'0 0.0
2017-Jul-23 04:30N 44°03' E 009°50'0 0.0
2017-Jul-22 17:21N 44°03' E 009°50'3 9.9
2017-Jul-22 17:00N 44°05' E 009°54'3 6.6
2017-Jul-22 16:30N 44°03' E 009°50'0 0.0
2017-Jul-22 16:00N 44°03' E 009°50'0 0.0
2017-Jul-22 15:30N 44°03' E 009°50'3 6.8
2017-Jul-22 15:00N 44°04' E 009°55'4 3.7
2017-Jul-22 14:01N 44°02' E 009°51'1 1.2
2017-Jul-22 13:31N 44°01' E 009°51'2 3.7
2017-Jul-22 13:01N 44°03' E 009°50'3 6.0
2017-Jul-22 12:31N 44°05' E 009°54'1 1.0
2017-Jul-22 12:00N 44°04' E 009°55'0 0.0
2017-Jul-22 11:30N 44°04' E 009°55'3 6.8
2017-Jul-22 11:00N 44°03' E 009°50'2 3.5
2017-Jul-22 10:31N 44°01' E 009°51'2 3.5
2017-Jul-22 10:00N 44°03' E 009°50'3 6.9
2017-Jul-22 09:30N 44°04' E 009°55'0 0.0
2017-Jul-22 09:00N 44°04' E 009°55'3 6.8
2017-Jul-22 08:30N 44°03' E 009°50'0 0.0
2017-Jul-22 08:00N 44°03' E 009°50'3 6.9
2017-Jul-22 07:30N 44°04' E 009°55'2 3.3
2017-Jul-22 07:01N 44°03' E 009°53'2 3.7
2017-Jul-22 06:30N 44°03' E 009°50'0 0.0
2017-Jul-22 06:00N 44°03' E 009°50'0 0.0
2017-Jul-22 05:30N 44°03' E 009°50'0 0.0
2017-Jul-22 05:00N 44°03' E 009°50'0 0.0
2017-Jul-22 04:30N 44°03' E 009°50'0 0.7
2017-Jul-22 04:00N 44°03' E 009°51'0 0.0
2017-Jul-21 15:23N 44°03' E 009°51'3 8.0
2017-Jul-21 15:00N 44°06' E 009°50'3 5.4
2017-Jul-21 14:30N 44°03' E 009°51'0 1.0
2017-Jul-21 14:00N 44°03' E 009°50'3 6.5
2017-Jul-21 13:31N 44°04' E 009°46'4 7.6
2017-Jul-21 13:00N 44°07' E 009°42'3 4.9
2017-Jul-21 12:27N 44°09' E 009°39'2 0.9
2017-Jul-21 10:24N 44°09' E 009°37'3 5.1
2017-Jul-21 09:48N 44°08' E 009°41'3 8.2
2017-Jul-21 09:26N 44°06' E 009°44'512.3
2017-Jul-21 09:01N 44°03' E 009°50'3 6.8
2017-Jul-21 08:30N 44°04' E 009°55'0 0.0
2017-Jul-21 08:00N 44°04' E 009°55'0 0.7
2017-Jul-21 07:30N 44°04' E 009°54'3 6.2
2017-Jul-21 07:00N 44°03' E 009°50'0 0.0
2017-Jul-21 06:31N 44°03' E 009°50'0 0.0
2017-Jul-21 06:00N 44°03' E 009°50'0 0.0
2017-Jul-21 05:30N 44°03' E 009°50'0 0.0
2017-Jul-21 05:01N 44°03' E 009°50'0 0.0
2017-Jul-21 04:30N 44°03' E 009°50'0 0.9
2017-Jul-21 04:00N 44°03' E 009°51'0 0.0
2017-Jul-20 16:12N 44°03' E 009°51'0 2.3
2017-Jul-20 16:00N 44°03' E 009°50'5 8.8
2017-Jul-20 15:24N 44°06' E 009°44'0 0.1
2017-Jul-20 13:18N 44°06' E 009°44'515.9
2017-Jul-20 13:00N 44°03' E 009°49'1 1.5
2017-Jul-20 12:30N 44°03' E 009°50'0 0.0
2017-Jul-20 12:00N 44°03' E 009°50'0 0.0
2017-Jul-20 11:30N 44°03' E 009°50'0 0.0
2017-Jul-20 11:00N 44°03' E 009°50'4 7.8
2017-Jul-20 10:31N 44°05' E 009°45'3 1.5
2017-Jul-20 08:38N 44°07' E 009°42'1 5.2
2017-Jul-20 08:29N 44°06' E 009°43'610.7
2017-Jul-20 07:58N 44°03' E 009°50'2 5.3
2017-Jul-20 07:31N 44°05' E 009°50'1 2.2
2017-Jul-20 07:01N 44°06' E 009°50'3 6.1
2017-Jul-20 06:30N 44°03' E 009°51'0 0.8
2017-Jul-20 06:01N 44°03' E 009°50'0 0.0
2017-Jul-20 05:30N 44°03' E 009°50'0 0.0
2017-Jul-20 05:01N 44°03' E 009°50'0 0.0
2017-Jul-20 04:31N 44°03' E 009°50'0 0.0
2017-Jul-20 04:01N 44°03' E 009°50'0 0.0
2017-Jul-20 03:31N 44°03' E 009°50'0 0.0
2017-Jul-19 17:12N 44°03' E 009°50'1 6.0
2017-Jul-19 17:00N 44°04' E 009°52'7 4.7
2017-Jul-19 15:34N 44°06' E 009°43'115.4
2017-Jul-19 15:30N 44°06' E 009°42'3 3.7
2017-Jul-19 14:46N 44°09' E 009°39'0 0.0
2017-Jul-19 14:30N 44°09' E 009°39'2 0.9
2017-Jul-19 11:56N 44°07' E 009°42'2 3.0
2017-Jul-19 11:17N 44°06' E 009°44'415.5
2017-Jul-19 11:01N 44°03' E 009°49'2 4.3
2017-Jul-19 10:30N 44°05' E 009°51'1 2.7
2017-Jul-19 10:00N 44°06' E 009°50'0 0.0
2017-Jul-19 09:30N 44°06' E 009°50'0 0.0
2017-Jul-19 09:00N 44°06' E 009°50'0 0.9
2017-Jul-19 08:30N 44°06' E 009°50'0 0.1
2017-Jul-19 08:00N 44°06' E 009°50'3 5.4
2017-Jul-19 07:31N 44°03' E 009°50'0 0.0
2017-Jul-19 07:00N 44°03' E 009°50'0 0.0
2017-Jul-19 06:30N 44°03' E 009°50'0 0.0
2017-Jul-19 06:00N 44°03' E 009°50'0 0.0
2017-Jul-19 05:30N 44°03' E 009°50'0 0.0
2017-Jul-19 05:00N 44°03' E 009°50'0 0.0
2017-Jul-19 04:30N 44°03' E 009°50'0 0.0
2017-Jul-19 04:00N 44°03' E 009°50'0 0.0
2017-Jul-19 03:30N 44°03' E 009°50'0 0.0
2017-Jul-19 03:00N 44°03' E 009°50'0 0.0
2017-Jul-18 17:22N 44°03' E 009°50'3 7.7
2017-Jul-18 17:00N 44°06' E 009°50'3 5.2
2017-Jul-18 16:30N 44°03' E 009°51'5 9.2
2017-Jul-18 16:01N 44°05' E 009°45'4 1.9
2017-Jul-18 13:53N 44°08' E 009°41'1 0.9
2017-Jul-18 12:26N 44°09' E 009°39'0 0.0
2017-Jul-18 11:57N 44°09' E 009°39'0 0.2
2017-Jul-18 11:28N 44°09' E 009°39'1 3.0
2017-Jul-18 10:58N 44°08' E 009°41'3 4.4
2017-Jul-18 10:20N 44°06' E 009°44'0 0.4
2017-Jul-18 10:01N 44°06' E 009°44'4 7.8
2017-Jul-18 09:27N 44°09' E 009°39'4 6.8
2017-Jul-18 08:49N 44°06' E 009°44'0 1.4
2017-Jul-18 08:31N 44°05' E 009°44'5 9.3
2017-Jul-18 07:56N 44°03' E 009°50'0 0.0
2017-Jul-18 07:30N 44°03' E 009°50'0 0.0
2017-Jul-18 07:00N 44°03' E 009°50'0 0.0
2017-Jul-17 17:38N 44°03' E 009°50'1 5.2
2017-Jul-17 17:30N 44°03' E 009°49'918.8
2017-Jul-17 17:00N 44°08' E 009°38'0 0.8
2017-Jul-17 16:30N 44°08' E 009°38'2 4.5
2017-Jul-17 16:00N 44°07' E 009°41'2 4.3
2017-Jul-17 15:29N 44°06' E 009°44'511.1
2017-Jul-17 15:00N 44°03' E 009°50'0 0.0
2017-Jul-17 14:30N 44°03' E 009°50'2 3.5
2017-Jul-17 14:00N 44°03' E 009°48'4 6.1
2017-Jul-17 13:24N 44°06' E 009°44'410.8
2017-Jul-17 13:00N 44°09' E 009°39'0 0.0
2017-Jul-17 12:30N 44°09' E 009°39'0 0.0
2017-Jul-17 11:49N 44°09' E 009°39'0 0.0
2017-Jul-17 11:30N 44°09' E 009°39'2 4.4
2017-Jul-17 11:00N 44°07' E 009°41'2 4.3
2017-Jul-17 10:29N 44°06' E 009°44'511.1
2017-Jul-17 10:00N 44°03' E 009°50'2 4.0
2017-Jul-17 09:30N 44°05' E 009°51'1 2.6
2017-Jul-17 09:00N 44°06' E 009°50'3 6.2
2017-Jul-17 08:30N 44°03' E 009°51'0 0.8
2017-Jul-17 08:00N 44°03' E 009°50'0 0.0
2017-Jul-17 07:30N 44°03' E 009°50'0 0.0
2017-Jul-17 07:00N 44°03' E 009°50'3 6.8
2017-Jul-17 06:30N 44°04' E 009°55'3 6.9
2017-Jul-17 06:00N 44°03' E 009°50'0 0.0
2017-Jul-17 05:30N 44°03' E 009°50'0 0.0
2017-Jul-17 05:00N 44°03' E 009°50'0 0.0
2017-Jul-17 04:30N 44°03' E 009°50'0 0.0
2017-Jul-17 04:00N 44°03' E 009°50'0 0.0
2017-Jul-17 03:30N 44°03' E 009°50'0 0.0
2017-Jul-16 17:04N 44°03' E 009°50'0 2.6
2017-Jul-16 17:00N 44°03' E 009°50'1 2.4
2017-Jul-16 16:30N 44°04' E 009°52'1 2.7
2017-Jul-16 16:00N 44°03' E 009°50'0 0.0
2017-Jul-16 15:30N 44°03' E 009°50'2 4.9
2017-Jul-16 15:00N 44°04' E 009°53'2 4.1
2017-Jul-16 14:31N 44°03' E 009°51'0 0.8
2017-Jul-16 14:00N 44°03' E 009°50'2 3.0
2017-Jul-16 13:31N 44°02' E 009°51'2 3.0
2017-Jul-16 13:00N 44°03' E 009°50'3 5.5
2017-Jul-16 12:30N 44°04' E 009°54'1 1.4
2017-Jul-16 12:00N 44°04' E 009°55'0 0.0
2017-Jul-16 11:30N 44°04' E 009°55'2 4.7
2017-Jul-16 11:00N 44°03' E 009°52'1 2.9
2017-Jul-16 10:31N 44°02' E 009°50'1 1.6
2017-Jul-16 10:00N 44°03' E 009°50'3 6.8
2017-Jul-16 09:30N 44°04' E 009°55'3 6.1
2017-Jul-16 09:01N 44°03' E 009°51'0 0.8
2017-Jul-16 08:31N 44°03' E 009°50'0 0.0
2017-Jul-16 08:00N 44°03' E 009°50'3 6.9
2017-Jul-16 07:31N 44°04' E 009°55'2 3.9
2017-Jul-16 07:00N 44°04' E 009°52'1 2.9
2017-Jul-16 06:30N 44°03' E 009°50'0 0.0
2017-Jul-16 06:01N 44°03' E 009°50'0 0.0
2017-Jul-16 05:30N 44°03' E 009°50'0 0.0
2017-Jul-16 05:00N 44°03' E 009°50'0 0.0
2017-Jul-16 04:30N 44°03' E 009°50'0 0.8
2017-Jul-16 04:00N 44°03' E 009°51'0 0.0
2017-Jul-15 16:11N 44°03' E 009°51'2 9.9
2017-Jul-15 16:01N 44°04' E 009°53'2 4.1
2017-Jul-15 15:31N 44°03' E 009°50'0 0.1
2017-Jul-15 15:00N 44°03' E 009°50'9 6.1
2017-Jul-15 13:30N 44°08' E 009°40'1 2.7
2017-Jul-15 13:00N 44°07' E 009°41'2 4.2
2017-Jul-15 12:30N 44°06' E 009°43'4 2.7
2017-Jul-15 11:09N 44°09' E 009°39'3 8.1
2017-Jul-15 10:44N 44°06' E 009°43'0 1.9
2017-Jul-15 10:30N 44°06' E 009°43'1 1.0
2017-Jul-15 09:37N 44°07' E 009°43'112.1
2017-Jul-15 09:30N 44°06' E 009°44'510.6
2017-Jul-15 09:00N 44°03' E 009°50'5 8.2
2017-Jul-15 08:22N 44°06' E 009°44'2 2.7
2017-Jul-15 07:30N 44°07' E 009°41'611.4
2017-Jul-15 07:00N 44°04' E 009°48'2 3.9
2017-Jul-15 06:30N 44°03' E 009°50'0 0.0
2017-Jul-15 06:01N 44°03' E 009°50'0 0.0
2017-Jul-15 05:31N 44°03' E 009°50'0 0.0
2017-Jul-15 05:01N 44°03' E 009°50'0 0.0
2017-Jul-15 04:31N 44°03' E 009°50'0 0.9
2017-Jul-15 04:01N 44°03' E 009°51'0 0.0
2017-Jul-14 15:20N 44°03' E 009°51'0 1.4
2017-Jul-14 15:00N 44°03' E 009°50'0 0.0
2017-Jul-14 14:30N 44°03' E 009°50'3 6.2
2017-Jul-14 14:00N 44°04' E 009°46'3 5.7
2017-Jul-14 13:26N 44°06' E 009°43'3 5.5
2017-Jul-14 12:49N 44°09' E 009°39'0 0.1
2017-Jul-14 11:34N 44°09' E 009°39'0 0.0
2017-Jul-14 11:15N 44°09' E 009°39'1 1.5
2017-Jul-14 10:35N 44°08' E 009°40'0 4.5
2017-Jul-14 10:30N 44°08' E 009°40'4 3.2
2017-Jul-14 09:21N 44°06' E 009°44'3 8.3
2017-Jul-14 09:00N 44°04' E 009°47'3 5.1
2017-Jul-14 08:30N 44°03' E 009°50'0 0.0
2017-Jul-14 08:00N 44°03' E 009°50'0 0.0
2017-Jul-14 07:30N 44°03' E 009°50'0 0.0
2017-Jul-14 07:00N 44°03' E 009°50'0 0.0
2017-Jul-14 06:30N 44°03' E 009°50'0 0.0
2017-Jul-14 06:00N 44°03' E 009°50'0 0.0
2017-Jul-14 05:30N 44°03' E 009°50'0 0.0
2017-Jul-14 05:00N 44°03' E 009°50'0 0.0
2017-Jul-14 04:30N 44°03' E 009°50'0 0.0
2017-Jul-14 03:59N 44°03' E 009°50'0 0.0
2017-Jul-13 17:06N 44°03' E 009°51'0 4.9
2017-Jul-13 17:00N 44°03' E 009°51'0 0.4
2017-Jul-13 16:30N 44°03' E 009°51'  
Track history (hours):
 
Tides and Currents Weather Stations Pressure Air Temp Water Temp Dewpoint Dewpoint Depression Visibility Wind Speed Wind Dir Waves Ship Positions

Ufo 3

Last reported at 2017-Jul-23 16:27 UTC. Time now 2017-Jul-24 00:29 UTC.
Position N 44°03' E 009°51'.

Length 28 m.

Type: Passenger vessel. MMSI: 247031600.

Date/timePositionNaut miles runAvg speedWind from/ knotsBaromVisibWave heightAir tempDewpointWater temp
2017-Jul-23 16:27N 44°03' E 009°51'3 6.7
2017-Jul-23 16:00N 44°04' E 009°54'3 6.9
2017-Jul-23 15:30N 44°03' E 009°50'7 7.6
2017-Jul-23 14:35N 44°07' E 009°42'2 0.8
2017-Jul-23 12:28N 44°06' E 009°44'4 9.4
2017-Jul-23 12:00N 44°03' E 009°49'1 2.2
2017-Jul-23 11:30N 44°03' E 009°50'0 0.0
2017-Jul-23 11:00N 44°03' E 009°50'0 0.0
2017-Jul-23 10:30N 44°03' E 009°50'0 0.0
2017-Jul-23 10:00N 44°03' E 009°50'3 6.7
2017-Jul-23 09:30N 44°04' E 009°46'7 6.0
2017-Jul-23 08:20N 44°08' E 009°37'1 1.5
2017-Jul-23 07:47N 44°09' E 009°37'416.6
2017-Jul-23 07:30N 44°06' E 009°42'713.5
2017-Jul-23 07:00N 44°03' E 009°50'0 0.0
2017-Jul-23 06:30N 44°03' E 009°50'0 0.0
2017-Jul-23 06:00N 44°03' E 009°50'0 0.0
2017-Jul-23 05:30N 44°03' E 009°50'0 0.0
2017-Jul-23 05:00N 44°03' E 009°50'0 0.0
2017-Jul-23 04:30N 44°03' E 009°50'0 0.0
2017-Jul-22 17:21N 44°03' E 009°50'3 9.9
2017-Jul-22 17:00N 44°05' E 009°54'3 6.6
2017-Jul-22 16:30N 44°03' E 009°50'0 0.0
2017-Jul-22 16:00N 44°03' E 009°50'0 0.0
2017-Jul-22 15:30N 44°03' E 009°50'3 6.8
2017-Jul-22 15:00N 44°04' E 009°55'4 3.7
2017-Jul-22 14:01N 44°02' E 009°51'1 1.2
2017-Jul-22 13:31N 44°01' E 009°51'2 3.7
2017-Jul-22 13:01N 44°03' E 009°50'3 6.0
2017-Jul-22 12:31N 44°05' E 009°54'1 1.0
2017-Jul-22 12:00N 44°04' E 009°55'0 0.0
2017-Jul-22 11:30N 44°04' E 009°55'3 6.8
2017-Jul-22 11:00N 44°03' E 009°50'2 3.5
2017-Jul-22 10:31N 44°01' E 009°51'2 3.5
2017-Jul-22 10:00N 44°03' E 009°50'3 6.9
2017-Jul-22 09:30N 44°04' E 009°55'0 0.0
2017-Jul-22 09:00N 44°04' E 009°55'3 6.8
2017-Jul-22 08:30N 44°03' E 009°50'0 0.0
2017-Jul-22 08:00N 44°03' E 009°50'3 6.9
2017-Jul-22 07:30N 44°04' E 009°55'2 3.3
2017-Jul-22 07:01N 44°03' E 009°53'2 3.7
2017-Jul-22 06:30N 44°03' E 009°50'0 0.0
2017-Jul-22 06:00N 44°03' E 009°50'0 0.0
2017-Jul-22 05:30N 44°03' E 009°50'0 0.0
2017-Jul-22 05:00N 44°03' E 009°50'0 0.0
2017-Jul-22 04:30N 44°03' E 009°50'0 0.7
2017-Jul-22 04:00N 44°03' E 009°51'0 0.0
2017-Jul-21 15:23N 44°03' E 009°51'3 8.0
2017-Jul-21 15:00N 44°06' E 009°50'3 5.4
2017-Jul-21 14:30N 44°03' E 009°51'0 1.0
2017-Jul-21 14:00N 44°03' E 009°50'3 6.5
2017-Jul-21 13:31N 44°04' E 009°46'4 7.6
2017-Jul-21 13:00N 44°07' E 009°42'3 4.9
2017-Jul-21 12:27N 44°09' E 009°39'2 0.9
2017-Jul-21 10:24N 44°09' E 009°37'3 5.1
2017-Jul-21 09:48N 44°08' E 009°41'3 8.2
2017-Jul-21 09:26N 44°06' E 009°44'512.3
2017-Jul-21 09:01N 44°03' E 009°50'3 6.8
2017-Jul-21 08:30N 44°04' E 009°55'0 0.0
2017-Jul-21 08:00N 44°04' E 009°55'0 0.7
2017-Jul-21 07:30N 44°04' E 009°54'3 6.2
2017-Jul-21 07:00N 44°03' E 009°50'0 0.0
2017-Jul-21 06:31N 44°03' E 009°50'0 0.0
2017-Jul-21 06:00N 44°03' E 009°50'0 0.0
2017-Jul-21 05:30N 44°03' E 009°50'0 0.0
2017-Jul-21 05:01N 44°03' E 009°50'0 0.0
2017-Jul-21 04:30N 44°03' E 009°50'0 0.9
2017-Jul-21 04:00N 44°03' E 009°51'0 0.0
2017-Jul-20 16:12N 44°03' E 009°51'0 2.3
2017-Jul-20 16:00N 44°03' E 009°50'5 8.8
2017-Jul-20 15:24N 44°06' E 009°44'0 0.1
2017-Jul-20 13:18N 44°06' E 009°44'515.9
2017-Jul-20 13:00N 44°03' E 009°49'1 1.5
2017-Jul-20 12:30N 44°03' E 009°50'0 0.0
2017-Jul-20 12:00N 44°03' E 009°50'0 0.0
2017-Jul-20 11:30N 44°03' E 009°50'0 0.0
2017-Jul-20 11:00N 44°03' E 009°50'4 7.8
2017-Jul-20 10:31N 44°05' E 009°45'3 1.5
2017-Jul-20 08:38N 44°07' E 009°42'1 5.2
2017-Jul-20 08:29N 44°06' E 009°43'610.7
2017-Jul-20 07:58N 44°03' E 009°50'2 5.3
2017-Jul-20 07:31N 44°05' E 009°50'1 2.2
2017-Jul-20 07:01N 44°06' E 009°50'3 6.1
2017-Jul-20 06:30N 44°03' E 009°51'0 0.8
2017-Jul-20 06:01N 44°03' E 009°50'0 0.0
2017-Jul-20 05:30N 44°03' E 009°50'0 0.0
2017-Jul-20 05:01N 44°03' E 009°50'0 0.0
2017-Jul-20 04:31N 44°03' E 009°50'0 0.0
2017-Jul-20 04:01N 44°03' E 009°50'0 0.0
2017-Jul-20 03:31N 44°03' E 009°50'0 0.0
2017-Jul-19 17:12N 44°03' E 009°50'1 6.0
2017-Jul-19 17:00N 44°04' E 009°52'7 4.7
2017-Jul-19 15:34N 44°06' E 009°43'115.4
2017-Jul-19 15:30N 44°06' E 009°42'3 3.7
2017-Jul-19 14:46N 44°09' E 009°39'0 0.0
2017-Jul-19 14:30N 44°09' E 009°39'2 0.9
2017-Jul-19 11:56N 44°07' E 009°42'2 3.0
2017-Jul-19 11:17N 44°06' E 009°44'415.5
2017-Jul-19 11:01N 44°03' E 009°49'2 4.3
2017-Jul-19 10:30N 44°05' E 009°51'1 2.7
2017-Jul-19 10:00N 44°06' E 009°50'0 0.0
2017-Jul-19 09:30N 44°06' E 009°50'0 0.0
2017-Jul-19 09:00N 44°06' E 009°50'0 0.9
2017-Jul-19 08:30N 44°06' E 009°50'0 0.1
2017-Jul-19 08:00N 44°06' E 009°50'3 5.4
2017-Jul-19 07:31N 44°03' E 009°50'0 0.0
2017-Jul-19 07:00N 44°03' E 009°50'0 0.0
2017-Jul-19 06:30N 44°03' E 009°50'0 0.0
2017-Jul-19 06:00N 44°03' E 009°50'0 0.0
2017-Jul-19 05:30N 44°03' E 009°50'0 0.0
2017-Jul-19 05:00N 44°03' E 009°50'0 0.0
2017-Jul-19 04:30N 44°03' E 009°50'0 0.0
2017-Jul-19 04:00N 44°03' E 009°50'0 0.0
2017-Jul-19 03:30N 44°03' E 009°50'0 0.0
2017-Jul-19 03:00N 44°03' E 009°50'0 0.0
2017-Jul-18 17:22N 44°03' E 009°50'3 7.7
2017-Jul-18 17:00N 44°06' E 009°50'3 5.2
2017-Jul-18 16:30N 44°03' E 009°51'5 9.2
2017-Jul-18 16:01N 44°05' E 009°45'4 1.9
2017-Jul-18 13:53N 44°08' E 009°41'1 0.9
2017-Jul-18 12:26N 44°09' E 009°39'0 0.0
2017-Jul-18 11:57N 44°09' E 009°39'0 0.2
2017-Jul-18 11:28N 44°09' E 009°39'1 3.0
2017-Jul-18 10:58N 44°08' E 009°41'3 4.4
2017-Jul-18 10:20N 44°06' E 009°44'0 0.4
2017-Jul-18 10:01N 44°06' E 009°44'4 7.8
2017-Jul-18 09:27N 44°09' E 009°39'4 6.8
2017-Jul-18 08:49N 44°06' E 009°44'0 1.4
2017-Jul-18 08:31N 44°05' E 009°44'5 9.3
2017-Jul-18 07:56N 44°03' E 009°50'0 0.0
2017-Jul-18 07:30N 44°03' E 009°50'0 0.0
2017-Jul-18 07:00N 44°03' E 009°50'0 0.0
2017-Jul-17 17:38N 44°03' E 009°50'1 5.2
2017-Jul-17 17:30N 44°03' E 009°49'918.8
2017-Jul-17 17:00N 44°08' E 009°38'0 0.8
2017-Jul-17 16:30N 44°08' E 009°38'2 4.5
2017-Jul-17 16:00N 44°07' E 009°41'2 4.3
2017-Jul-17 15:29N 44°06' E 009°44'511.1
2017-Jul-17 15:00N 44°03' E 009°50'0 0.0
2017-Jul-17 14:30N 44°03' E 009°50'2 3.5
2017-Jul-17 14:00N 44°03' E 009°48'4 6.1
2017-Jul-17 13:24N 44°06' E 009°44'410.8
2017-Jul-17 13:00N 44°09' E 009°39'0 0.0
2017-Jul-17 12:30N 44°09' E 009°39'0 0.0
2017-Jul-17 11:49N 44°09' E 009°39'0 0.0
2017-Jul-17 11:30N 44°09' E 009°39'2 4.4
2017-Jul-17 11:00N 44°07' E 009°41'2 4.3
2017-Jul-17 10:29N 44°06' E 009°44'511.1
2017-Jul-17 10:00N 44°03' E 009°50'2 4.0
2017-Jul-17 09:30N 44°05' E 009°51'1 2.6
2017-Jul-17 09:00N 44°06' E 009°50'3 6.2
2017-Jul-17 08:30N 44°03' E 009°51'0 0.8
2017-Jul-17 08:00N 44°03' E 009°50'0 0.0
2017-Jul-17 07:30N 44°03' E 009°50'0 0.0
2017-Jul-17 07:00N 44°03' E 009°50'3 6.8
2017-Jul-17 06:30N 44°04' E 009°55'3 6.9
2017-Jul-17 06:00N 44°03' E 009°50'0 0.0
2017-Jul-17 05:30N 44°03' E 009°50'0 0.0
2017-Jul-17 05:00N 44°03' E 009°50'0 0.0
2017-Jul-17 04:30N 44°03' E 009°50'0 0.0
2017-Jul-17 04:00N 44°03' E 009°50'0 0.0
2017-Jul-17 03:30N 44°03' E 009°50'0 0.0
2017-Jul-16 17:04N 44°03' E 009°50'0 2.6
2017-Jul-16 17:00N 44°03' E 009°50'1 2.4
2017-Jul-16 16:30N 44°04' E 009°52'1 2.7
2017-Jul-16 16:00N 44°03' E 009°50'0 0.0
2017-Jul-16 15:30N 44°03' E 009°50'2 4.9
2017-Jul-16 15:00N 44°04' E 009°53'2 4.1
2017-Jul-16 14:31N 44°03' E 009°51'0 0.8
2017-Jul-16 14:00N 44°03' E 009°50'2 3.0
2017-Jul-16 13:31N 44°02' E 009°51'2 3.0
2017-Jul-16 13:00N 44°03' E 009°50'3 5.5
2017-Jul-16 12:30N 44°04' E 009°54'1 1.4
2017-Jul-16 12:00N 44°04' E 009°55'0 0.0
2017-Jul-16 11:30N 44°04' E 009°55'2 4.7
2017-Jul-16 11:00N 44°03' E 009°52'1 2.9
2017-Jul-16 10:31N 44°02' E 009°50'1 1.6
2017-Jul-16 10:00N 44°03' E 009°50'3 6.8
2017-Jul-16 09:30N 44°04' E 009°55'3 6.1
2017-Jul-16 09:01N 44°03' E 009°51'0 0.8
2017-Jul-16 08:31N 44°03' E 009°50'0 0.0
2017-Jul-16 08:00N 44°03' E 009°50'3 6.9
2017-Jul-16 07:31N 44°04' E 009°55'2 3.9
2017-Jul-16 07:00N 44°04' E 009°52'1 2.9
2017-Jul-16 06:30N 44°03' E 009°50'0 0.0
2017-Jul-16 06:01N 44°03' E 009°50'0 0.0
2017-Jul-16 05:30N 44°03' E 009°50'0 0.0
2017-Jul-16 05:00N 44°03' E 009°50'0 0.0
2017-Jul-16 04:30N 44°03' E 009°50'0 0.8
2017-Jul-16 04:00N 44°03' E 009°51'0 0.0
2017-Jul-15 16:11N 44°03' E 009°51'2 9.9
2017-Jul-15 16:01N 44°04' E 009°53'2 4.1
2017-Jul-15 15:31N 44°03' E 009°50'0 0.1
2017-Jul-15 15:00N 44°03' E 009°50'9 6.1
2017-Jul-15 13:30N 44°08' E 009°40'1 2.7
2017-Jul-15 13:00N 44°07' E 009°41'2 4.2
2017-Jul-15 12:30N 44°06' E 009°43'4 2.7
2017-Jul-15 11:09N 44°09' E 009°39'3 8.1
2017-Jul-15 10:44N 44°06' E 009°43'0 1.9
2017-Jul-15 10:30N 44°06' E 009°43'1 1.0
2017-Jul-15 09:37N 44°07' E 009°43'112.1
2017-Jul-15 09:30N 44°06' E 009°44'510.6
2017-Jul-15 09:00N 44°03' E 009°50'5 8.2
2017-Jul-15 08:22N 44°06' E 009°44'2 2.7
2017-Jul-15 07:30N 44°07' E 009°41'611.4
2017-Jul-15 07:00N 44°04' E 009°48'2 3.9
2017-Jul-15 06:30N 44°03' E 009°50'0 0.0
2017-Jul-15 06:01N 44°03' E 009°50'0 0.0
2017-Jul-15 05:31N 44°03' E 009°50'0 0.0
2017-Jul-15 05:01N 44°03' E 009°50'0 0.0
2017-Jul-15 04:31N 44°03' E 009°50'0 0.9
2017-Jul-15 04:01N 44°03' E 009°51'0 0.0
2017-Jul-14 15:20N 44°03' E 009°51'0 1.4
2017-Jul-14 15:00N 44°03' E 009°50'0 0.0
2017-Jul-14 14:30N 44°03' E 009°50'3 6.2
2017-Jul-14 14:00N 44°04' E 009°46'3 5.7
2017-Jul-14 13:26N 44°06' E 009°43'3 5.5
2017-Jul-14 12:49N 44°09' E 009°39'0 0.1
2017-Jul-14 11:34N 44°09' E 009°39'0 0.0
2017-Jul-14 11:15N 44°09' E 009°39'1 1.5
2017-Jul-14 10:35N 44°08' E 009°40'0 4.5
2017-Jul-14 10:30N 44°08' E 009°40'4 3.2
2017-Jul-14 09:21N 44°06' E 009°44'3 8.3
2017-Jul-14 09:00N 44°04' E 009°47'3 5.1
2017-Jul-14 08:30N 44°03' E 009°50'0 0.0
2017-Jul-14 08:00N 44°03' E 009°50'0 0.0
2017-Jul-14 07:30N 44°03' E 009°50'0 0.0
2017-Jul-14 07:00N 44°03' E 009°50'0 0.0
2017-Jul-14 06:30N 44°03' E 009°50'0 0.0
2017-Jul-14 06:00N 44°03' E 009°50'0 0.0
2017-Jul-14 05:30N 44°03' E 009°50'0 0.0
2017-Jul-14 05:00N 44°03' E 009°50'0 0.0
2017-Jul-14 04:30N 44°03' E 009°50'0 0.0
2017-Jul-14 03:59N 44°03' E 009°50'0 0.0
2017-Jul-13 17:06N 44°03' E 009°51'0 4.9
2017-Jul-13 17:00N 44°03' E 009°51'0 0.4
2017-Jul-13 16:30N 44°03' E 009°51'  

Dump ship's entire track history